หน้าหลัก
METAR-TAF:

METAR-TAF

ท่าอากาศยาน :

Lanseria, แอฟริกาใต้

ละติจูด: 25-56S, ลองจิจูด: 027-56E, ความสูง: 1377 ม.

การสังเกตสภาพอากาศปัจจุบัน

รายงานได้ทำขึ้นเมื่อ 39 นาทีที่แล้ว ณ เวลา 08:00 UTC
ลม 4 นอตจากตะวันตกเฉียงเหนือ, แปรผันระหว่างตะวันตกเฉียงใต้ และเหนือ/ตะวันออกเฉียงเหนือ
อุณหภูมิ 22°C
ความชื้น 46%
ความกดอากาศ 1026 hPa
ทัศนวิสัย 10 กม. หรือมากกว่า
ไม่มีเมฆต่ำกว่า 1,500 ม. และไม่มีเมฆคิวมูโลนิมบัส

METAR: FALA 200800Z 32004KT 230V020 CAVOK 22/10 Q1026 NOSIG

เวลา: 10:39 (08:39 UTC)

การพยากรณ์

รายงานได้ทำขึ้นเมื่อ 4 ชั่วโมงและ 39 นาทีที่แล้ว ณ เวลา 04:00 UTC
การพยากรณ์มีผลตั้งแต่วันที่ 20 ณ เวลา 06 UTC จนถึงวันที่ 21 ณ เวลา 06 UTC
ลม 3 นอตจากทิศทางซึ่งแปรผันได้
ทัศนวิสัย 10 กม. หรือมากกว่า
ไม่มีเมฆต่ำกว่า 1,500 ม. และไม่มีเมฆคิวมูโลนิมบัส
กำลังกลายเป็น
ตั้งแต่วันที่ 20 ณ เวลา 10 UTC จนถึงวันที่ 20 ณ เวลา 12 UTC
ลม 9 นอตจากใต้/ตะวันตกเฉียงใต้
กำลังกลายเป็น
ตั้งแต่วันที่ 20 ณ เวลา 14 UTC จนถึงวันที่ 20 ณ เวลา 16 UTC
ลม 3 นอตจากทิศทางซึ่งแปรผันได้

TAF: FALA 200400Z 2006/2106 VRB03KT CAVOK TX28/2014Z TN11/2103Z BECMG 2010/2012 20009KT BECMG 2014/2016 VRB03KT

สังเกตการณ์สภาพอากาศและพยากรณ์อากาศของสนามบินมากกว่า 4000 แห่ง (รายงาน METAR และ TAF).

สถานีที่ดูได้จะแสดงไว้ด้วยจุดสีเหลืองและสีแดงบนแผนที่.

เลื่อนเมาส์ไปเหนือจุดเพื่อดูชื่อสถานี.

แล้วคลิกเพื่อดูสังเกตการณ์และการพยากรณ์สภาพอากาศ.

ในการเปลี่ยนแผนที่: คลิกที่ปุ่มสีเขียวที่มีกากบาทสีดำเพื่อซูมเข้า; ที่ปุ่มสีเขียวที่มีขีดเพื่อซูมออก; หรือที่ลูกศรสีเขียวเพื่อไปยังแผนที่ที่อยู่ติดกัน.


METAR-TAF: